LSZHLSZA

Guest
Details From LSZH - Zurich
To LSZA - Lugano
Flight Number -
Tags Standard
Created
Modified
Stats Distance 94 nm / 173 km
Max Altitude 0 ft / 0 m
Waypoints 6
Social Downloads 109
Likes 0
Share VATSIM

Download

Looking for another format? Having issues loading an existing format? Contact us
Advertisement - Login to hide

Notes

None

Route

LSZH GERSA SOSON DEGAD ODINA LSZA

ID Type Via Altitude Latitude Longitude Leg Dist Tot Dist Heading (true) Name
O LSZH APT - 0 ft / 0 m 47.46051˚ 8.54634˚ - 0 nm - Zurich
GERSA FIX - 0 ft / 0 m 47.03944˚ 8.53222˚ 25 nm 25 nm 181° / 181° -
SOSON FIX - 0 ft / 0 m 46.60667˚ 8.59417˚ 26 nm 51 nm 174° / 174° -
DEGAD FIX - 0 ft / 0 m 46.43611˚ 8.61833˚ 10 nm 61 nm 174° / 174° -
ODINA FIX - 0 ft / 0 m 46.10444˚ 8.66500˚ 20 nm 81 nm 174° / 174° -
O LSZA APT - 0 ft / 0 m 46.00427˚ 8.91059˚ 11 nm 93 nm 120° / 121° Lugano

Altitude Profile

Advertisement - Login to hide

LSZH

Details ICAO LSZH (ZRH)
Name Zurich
Region Switzerland
Timezone Europe/Zurich (UTC+2.0)
Stats Elevation 1,416 ft / 432 m (AMSL)
Location 47.463489° 8.549964°
Runways 3
Magnetic Variation 2.399° E

METAR

LSZH 212020Z VRB01KT CAVOK 13/11 Q1012 NOSIG

Decode

TAF

TAF LSZH 212025Z 2121/2303 VRB03KT CAVOK TX23/2214Z TN11/2204Z PROB30 2203/2206 2000 BCFG BKN002 BECMG 2211/2214 9999 SCT040TCU TEMPO 2215/2303 4000 SHRA FEW050TCU BKN080

Decode

Departure Runways

ID Width Length Bearing (true) Bearing (mag) Surface Threshold Offset Overrun Length
10 197 ft / 60 m 8,180 ft / 2,493 m 95.98° 93.58° Concrete 0 ft / 0 m 197 ft / 60 m
14 197 ft / 60 m 10,816 ft / 3,297 m 137.30° 134.90° Concrete 492 ft / 150 m 0 ft / 0 m
16 197 ft / 60 m 12,137 ft / 3,699 m 155.00° 152.60° Concrete 0 ft / 0 m 197 ft / 60 m
28 197 ft / 60 m 8,180 ft / 2,493 m 276.01° 273.61° Concrete 0 ft / 0 m 197 ft / 60 m
32 197 ft / 60 m 10,816 ft / 3,297 m 317.32° 314.92° Concrete 0 ft / 0 m 197 ft / 60 m
34 197 ft / 60 m 12,137 ft / 3,699 m 335.01° 332.61° Concrete 1,542 ft / 470 m 0 ft / 0 m

LSZA

Details ICAO LSZA (LUG)
Name Lugano
Region Switzerland
Timezone Europe/Zurich (UTC+2.0)
Stats Elevation 915 ft / 279 m (AMSL)
Location 46.004275° 8.910579°
Runways 1
Magnetic Variation 2.474° E

METAR

LSZA 212020Z AUTO VRB01KT 9999 SCT070 BKN100 16/13 Q1014

Decode

TAF

Not found

Destination Runways

ID Width Length Bearing (true) Bearing (mag) Surface Threshold Offset Overrun Length
01 98 ft / 30 m 4,430 ft / 1,350 m 18.79° 16.32° Asphalt 361 ft / 110 m 0 ft / 0 m
19 98 ft / 30 m 4,430 ft / 1,350 m 198.79° 196.32° Asphalt 673 ft / 205 m 0 ft / 0 m

Approach Navaids

Runway Type Ident Frequency Range Bearing (true) Bearing (mag) Slope Elevation
01 Localiser ILU 111.50 MHz 18 nm / 33 km 18.79° 16.32° - 928 ft / 283 m (AMSL)
01 Glidescope ILU 111.50 MHz 10 nm / 19 km 19.99° 17.52° 6.00° 928 ft / 283 m (AMSL)
01 DME ILU 111.50 MHz 18 nm / 33 km - - - 928 ft / 283 m (AMSL)

Popular Alternatives